Airfield :







YOU CAN JOIN US ON...

 
LOGIN :

Register | Disclaimer

   EN    FR    IT 

 









Legend :    VFR   Marginal VFR   IFR   Intensive IFR   Very Intensive IFR
Visi :
Ceiling :
>= 8 km
>= 3000ft
5 to 8 km
1000 to 3000 ft
1500m to 5 km
500 to 1000 ft
800 to 1500m
200 to 500 ft
< 800m
< 200 ft
Symbols :   Thunderstorms  Fog  Heavy snow  Heavy precipitations  Wind > 20 kt







- Airport Elevation : 335 ft
- IATA code : BTV


KBTV - Burlington International

CURRENT METAR :
  • 201254Z 19013KT 10SM FEW020 BKN110 21/17 A2968 RMK AO2 SLP050 T02110172

EXPIRED METARs :
  • 201154Z 20009KT 10SM BKN050 BKN060 20/18 A2969 RMK AO2 SLP054 60003 70083 T02000178 10200 20183 54000
  • 201054Z 19009KT 10SM BKN050 19/18 A2970 RMK AO2 SLP056 T01940178

TAF KBTV
Valid from the 20 at 12:00 until the 21 at 12:00 UTC


201136Z 2012/2112 20008KT P6SM SCT040
FM201400 21008KT 6SM -SHRA BR BKN040
TEMPO 2014/2015 4SM TSRA BR OVC025CB
FM201600 22009KT P6SM VCSH SCT045
FM202100 25012KT P6SM BKN060
FM210900 29010KT P6SM SCT035
KZBW FIR / North America



MET'MAP, your aeronautical weather chart ! - Copyright ORBIFLY December 2007 - Disclaimer

ORBIFLY MET'MAP TEAM :

Programming & Development : Alexandra Zaïnal
Concept & Development : Baudouin d'Aumeries
Co-Development & Prog : Marc-Olivier Méhu
Technical & hardware support : Manuel Goepfert

Contact : metmap@orbifly.com




SOURCES & CREDITS :

   NOAA